createdAt,value
2022-09-21T00:01:49.265Z,10.15
2022-09-21T00:04:17.342Z,10.14
2022-09-21T00:06:46.514Z,10.14
2022-09-21T00:09:16.175Z,10.13
2022-09-21T00:11:44.121Z,10.11
2022-09-21T00:14:18.229Z,10.12
2022-09-21T00:16:48.815Z,10.11
2022-09-21T00:19:19.150Z,10.12
2022-09-21T00:21:47.450Z,10.11
2022-09-21T00:24:15.396Z,10.10
2022-09-21T00:26:43.326Z,10.10
2022-09-21T00:29:11.294Z,10.09
2022-09-21T00:31:41.203Z,10.09
2022-09-21T00:34:13.263Z,10.09
2022-09-21T00:36:41.224Z,10.09
2022-09-21T00:39:12.134Z,10.08
2022-09-21T00:41:40.024Z,10.08
2022-09-21T00:44:33.585Z,10.07
2022-09-21T00:47:10.565Z,10.08
2022-09-21T00:49:45.651Z,10.08
2022-09-21T00:52:17.074Z,10.08
2022-09-21T00:55:06.678Z,10.08
2022-09-21T00:57:36.184Z,10.07
2022-09-21T01:00:10.002Z,10.06
2022-09-21T01:02:42.797Z,10.05
2022-09-21T01:05:15.123Z,10.03
2022-09-21T01:07:49.783Z,10.02
2022-09-21T01:10:23.030Z,10.01
2022-09-21T01:13:00.179Z,10.00
2022-09-21T01:16:03.662Z,9.99
2022-09-21T01:18:49.472Z,9.97
2022-09-21T01:21:46.265Z,9.97
2022-09-21T01:24:39.013Z,9.94
2022-09-21T01:27:30.351Z,9.93
2022-09-21T01:30:11.512Z,9.93
2022-09-21T01:32:48.701Z,9.93
2022-09-21T01:35:28.424Z,9.93
2022-09-21T01:38:09.624Z,9.92
2022-09-21T01:40:52.550Z,9.91
2022-09-21T01:43:29.391Z,9.89
2022-09-21T01:46:04.866Z,9.90
2022-09-21T01:48:41.990Z,9.89
2022-09-21T01:51:17.022Z,9.89
2022-09-21T01:53:56.915Z,9.88
2022-09-21T01:56:45.066Z,9.88
2022-09-21T01:59:24.857Z,9.88
2022-09-21T02:01:59.714Z,9.87
2022-09-21T02:04:33.813Z,9.87
2022-09-21T02:07:07.642Z,9.85
2022-09-21T02:09:39.292Z,9.85
2022-09-21T02:12:08.214Z,9.85
2022-09-21T02:14:39.497Z,9.85
2022-09-21T02:18:01.358Z,9.84
2022-09-21T02:20:40.690Z,9.82
2022-09-21T02:23:26.840Z,9.82
2022-09-21T02:26:04.089Z,9.81
2022-09-21T02:28:53.250Z,9.82
2022-09-21T02:31:46.552Z,9.82
2022-09-21T02:34:18.191Z,9.82
2022-09-21T02:36:58.655Z,9.82
2022-09-21T02:39:45.777Z,9.82
2022-09-21T02:42:31.974Z,9.82
2022-09-21T02:45:21.505Z,9.82
2022-09-21T02:47:52.191Z,9.82
2022-09-21T02:50:42.747Z,9.82
2022-09-21T02:53:18.231Z,9.83
2022-09-21T02:55:56.309Z,9.84
2022-09-21T02:58:44.630Z,9.83
2022-09-21T03:01:18.039Z,9.83
2022-09-21T03:03:45.760Z,9.83
2022-09-21T03:06:22.668Z,9.82
2022-09-21T03:08:55.192Z,9.80
2022-09-21T03:11:23.111Z,9.80
2022-09-21T03:13:52.813Z,9.79
2022-09-21T03:16:26.113Z,9.79
2022-09-21T03:18:53.972Z,9.77
2022-09-21T03:21:25.080Z,9.77
2022-09-21T03:23:57.432Z,9.78
2022-09-21T03:26:29.969Z,9.78
2022-09-21T03:28:57.845Z,9.76
2022-09-21T03:31:25.663Z,9.76
2022-09-21T03:34:01.175Z,9.76
2022-09-21T03:36:29.170Z,9.76
2022-09-21T03:38:57.059Z,9.77
2022-09-21T03:41:27.978Z,9.77
2022-09-21T03:43:56.182Z,9.76
2022-09-21T03:46:26.285Z,9.77
2022-09-21T03:48:54.955Z,9.74
2022-09-21T03:51:25.114Z,9.75
2022-09-21T03:53:57.931Z,9.74
2022-09-21T03:56:25.864Z,9.75
2022-09-21T03:58:53.934Z,9.75
2022-09-21T04:01:21.735Z,9.73
2022-09-21T04:03:49.567Z,9.72
2022-09-21T04:06:17.432Z,9.71
2022-09-21T04:08:45.401Z,9.70
2022-09-21T04:11:15.239Z,9.69
2022-09-21T04:13:43.412Z,9.69
2022-09-21T04:16:11.625Z,9.68
2022-09-21T04:18:39.833Z,9.68
2022-09-21T04:21:07.672Z,9.69
2022-09-21T04:23:35.877Z,9.69
2022-09-21T04:26:04.259Z,9.70
2022-09-21T04:28:33.113Z,9.69
2022-09-21T04:31:01.250Z,9.68
2022-09-21T04:33:29.696Z,9.68
2022-09-21T04:35:58.309Z,9.67
2022-09-21T04:38:26.030Z,9.67
2022-09-21T04:40:58.443Z,9.67
2022-09-21T04:43:26.841Z,9.67
2022-09-21T04:45:55.198Z,9.67
2022-09-21T04:48:23.451Z,9.67
2022-09-21T04:50:51.888Z,9.66
2022-09-21T04:53:20.219Z,9.66
2022-09-21T04:55:48.502Z,9.66
2022-09-21T04:58:16.476Z,9.66
2022-09-21T05:00:44.196Z,9.67
2022-09-21T05:03:12.487Z,9.68
2022-09-21T05:05:51.971Z,9.68
2022-09-21T05:08:41.101Z,9.67
2022-09-21T05:11:16.564Z,9.68
2022-09-21T05:13:45.609Z,9.67
2022-09-21T05:16:17.806Z,9.66
2022-09-21T05:18:47.559Z,9.65
2022-09-21T05:21:16.294Z,9.64
2022-09-21T05:23:43.975Z,9.64
2022-09-21T05:26:11.918Z,9.64
2022-09-21T05:28:42.198Z,9.65
2022-09-21T05:31:28.164Z,9.63
2022-09-21T05:34:03.770Z,9.63
2022-09-21T05:36:41.853Z,9.65
2022-09-21T05:39:11.540Z,9.66
2022-09-21T05:41:40.827Z,9.67
2022-09-21T05:44:15.768Z,9.67
2022-09-21T05:46:53.998Z,9.68
2022-09-21T05:49:40.045Z,9.67
2022-09-21T05:52:21.110Z,9.67
2022-09-21T05:55:20.821Z,9.68
2022-09-21T05:58:20.009Z,9.68
2022-09-21T06:01:07.450Z,9.67
2022-09-21T06:03:39.339Z,9.68
2022-09-21T06:06:09.833Z,9.69
2022-09-21T06:08:37.759Z,9.70
2022-09-21T06:11:07.665Z,9.71
2022-09-21T06:13:39.558Z,9.72
2022-09-21T06:16:08.569Z,9.72
2022-09-21T06:18:42.446Z,9.73
2022-09-21T06:21:10.653Z,9.74
2022-09-21T06:23:39.532Z,9.75
2022-09-21T06:26:07.515Z,9.75
2022-09-21T06:28:36.236Z,9.76
2022-09-21T06:31:04.282Z,9.77
2022-09-21T06:33:37.011Z,9.80
2022-09-21T06:36:06.172Z,9.81
2022-09-21T06:38:37.026Z,9.83
2022-09-21T06:41:06.163Z,9.85
2022-09-21T06:43:35.292Z,9.87
2022-09-21T06:46:05.723Z,9.90
2022-09-21T06:48:36.413Z,9.91
2022-09-21T06:51:06.680Z,9.94
2022-09-21T06:53:35.918Z,9.96
2022-09-21T06:56:09.905Z,10.00
2022-09-21T06:58:39.181Z,10.02
2022-09-21T07:01:11.474Z,10.04
2022-09-21T07:03:41.499Z,10.07
2022-09-21T07:06:12.007Z,10.13
2022-09-21T07:11:30.045Z,10.23
2022-09-21T07:14:00.008Z,10.25
2022-09-21T07:16:29.025Z,10.26
2022-09-21T07:19:09.743Z,10.28
2022-09-21T07:21:41.360Z,10.32
2022-09-21T07:24:12.350Z,10.34
2022-09-21T07:26:41.727Z,10.34
2022-09-21T07:29:11.871Z,10.37
2022-09-21T07:31:39.859Z,10.38
2022-09-21T07:34:07.654Z,10.40
2022-09-21T07:36:36.409Z,10.42
2022-09-21T07:39:04.536Z,10.43
2022-09-21T07:41:33.758Z,10.44
2022-09-21T07:44:04.066Z,10.44
2022-09-21T07:46:33.648Z,10.43
2022-09-21T07:49:01.600Z,10.43
2022-09-21T07:51:30.529Z,10.43
2022-09-21T07:53:59.558Z,10.46
2022-09-21T07:56:28.347Z,10.56
2022-09-21T07:59:08.108Z,10.63
2022-09-21T08:01:41.156Z,10.69
2022-09-21T08:04:11.614Z,10.75
2022-09-21T08:06:40.594Z,10.83
2022-09-21T08:09:10.359Z,10.89
2022-09-21T08:11:44.595Z,10.90
2022-09-21T08:14:25.217Z,10.92
2022-09-21T08:16:56.394Z,10.94
2022-09-21T08:19:27.883Z,10.93
2022-09-21T08:21:57.797Z,10.92
2022-09-21T08:24:27.016Z,10.93
2022-09-21T08:26:58.861Z,11.00
2022-09-21T08:29:27.915Z,11.06
2022-09-21T08:31:57.057Z,11.13
2022-09-21T08:34:26.561Z,11.20
2022-09-21T08:36:55.650Z,11.21
2022-09-21T08:39:26.058Z,11.18
2022-09-21T08:42:15.342Z,11.17
2022-09-21T08:44:53.427Z,11.15
2022-09-21T08:47:54.655Z,11.13
2022-09-21T08:50:33.927Z,11.17
2022-09-21T08:53:13.023Z,11.24
2022-09-21T08:55:41.900Z,11.27
2022-09-21T08:58:27.416Z,11.27
2022-09-21T09:01:20.564Z,11.29
2022-09-21T09:04:15.088Z,11.32
2022-09-21T09:06:44.476Z,11.31
2022-09-21T09:09:37.379Z,11.31
2022-09-21T09:12:29.327Z,11.36
2022-09-21T09:15:12.771Z,11.42
2022-09-21T09:17:46.311Z,11.42
2022-09-21T09:20:30.474Z,11.41
2022-09-21T09:23:27.000Z,11.42
2022-09-21T09:26:29.194Z,11.46
2022-09-21T09:29:08.018Z,11.54
2022-09-21T09:31:37.931Z,11.64
2022-09-21T09:34:16.361Z,11.84
2022-09-21T09:36:58.713Z,12.06
2022-09-21T09:39:31.724Z,12.35
2022-09-21T09:42:02.169Z,12.44
2022-09-21T09:45:25.382Z,12.44
2022-09-21T09:48:19.232Z,12.46
2022-09-21T09:50:47.180Z,12.47
2022-09-21T09:53:27.144Z,12.48
2022-09-21T09:56:00.883Z,12.51
2022-09-21T09:58:48.804Z,12.58
2022-09-21T10:01:38.160Z,12.64
2022-09-21T10:04:12.100Z,12.82
2022-09-21T10:06:46.043Z,12.93
2022-09-21T10:09:27.623Z,12.99
2022-09-21T10:12:01.180Z,13.06
2022-09-21T10:14:36.002Z,13.07
2022-09-21T10:17:08.867Z,13.13
2022-09-21T10:19:39.082Z,13.32
2022-09-21T10:22:16.766Z,13.44
2022-09-21T10:24:51.529Z,13.49
2022-09-21T10:27:34.546Z,13.51
2022-09-21T10:30:02.595Z,13.51
2022-09-21T10:32:32.642Z,13.52
2022-09-21T10:35:13.180Z,13.56
2022-09-21T10:37:46.449Z,13.59
2022-09-21T10:40:21.111Z,13.56
2022-09-21T10:42:53.215Z,13.47
2022-09-21T10:45:24.426Z,13.42
2022-09-21T10:47:57.815Z,13.41
2022-09-21T10:50:40.796Z,13.35
2022-09-21T10:53:10.448Z,13.38
2022-09-21T10:56:11.928Z,13.50
2022-09-21T10:59:23.080Z,13.57
2022-09-21T11:01:56.740Z,13.73
2022-09-21T11:04:47.477Z,13.88
2022-09-21T11:07:28.846Z,14.03
2022-09-21T11:10:34.261Z,14.04
2022-09-21T11:13:33.323Z,13.97
2022-09-21T11:16:22.706Z,13.85
2022-09-21T11:19:02.922Z,13.69
2022-09-21T11:21:40.492Z,13.57
2022-09-21T11:24:30.022Z,13.41
2022-09-21T11:27:10.261Z,13.17
2022-09-21T11:29:44.100Z,13.01
2022-09-21T11:32:27.686Z,12.88
2022-09-21T11:35:13.244Z,12.72
2022-09-21T11:38:07.280Z,12.61
2022-09-21T11:41:01.876Z,12.55
2022-09-21T11:43:51.139Z,12.54
2022-09-21T11:46:51.123Z,12.66
2022-09-21T11:49:41.209Z,12.83
2022-09-21T11:52:33.551Z,12.95
2022-09-21T11:55:23.379Z,13.12
2022-09-21T11:58:02.265Z,13.32
2022-09-21T12:00:41.703Z,13.38
2022-09-21T12:03:31.117Z,13.38
2022-09-21T12:06:38.988Z,13.38
2022-09-21T12:09:22.619Z,13.30
2022-09-21T12:12:02.012Z,13.26
2022-09-21T12:14:58.627Z,13.15
2022-09-21T12:17:39.716Z,13.06
2022-09-21T12:20:33.305Z,12.99
2022-09-21T12:23:09.085Z,12.96
2022-09-21T12:25:47.552Z,12.96
2022-09-21T12:28:24.317Z,12.97
2022-09-21T12:31:08.137Z,12.95
2022-09-21T12:33:42.957Z,12.94
2022-09-21T12:36:26.224Z,12.95
2022-09-21T12:39:09.243Z,12.93
2022-09-21T12:42:02.991Z,12.93
2022-09-21T12:44:53.617Z,12.96
2022-09-21T12:47:47.647Z,12.98
2022-09-21T12:50:27.422Z,13.12
2022-09-21T12:52:58.345Z,13.23
2022-09-21T12:55:30.727Z,13.31
2022-09-21T12:58:15.620Z,13.34
2022-09-21T13:01:01.186Z,13.40
2022-09-21T13:04:00.502Z,13.44
2022-09-21T13:06:43.112Z,13.45
2022-09-21T13:09:20.746Z,13.48
2022-09-21T13:11:55.737Z,13.49
2022-09-21T13:14:42.175Z,13.52
2022-09-21T13:17:30.122Z,13.56
2022-09-21T13:20:17.859Z,13.60
2022-09-21T13:22:50.607Z,13.63
2022-09-21T13:25:20.422Z,13.66
2022-09-21T13:28:14.978Z,13.66
2022-09-21T13:30:47.701Z,13.69
2022-09-21T13:33:18.764Z,13.70
2022-09-21T13:35:48.711Z,13.70
2022-09-21T13:38:43.377Z,13.68
2022-09-21T13:41:21.737Z,13.71
2022-09-21T13:44:01.324Z,13.79
2022-09-21T13:46:37.495Z,13.88
2022-09-21T13:49:12.141Z,13.95
2022-09-21T13:52:13.457Z,13.97
2022-09-21T13:54:44.943Z,13.99
2022-09-21T13:57:48.271Z,14.00
2022-09-21T14:00:20.895Z,14.03
2022-09-21T14:02:51.354Z,14.06
2022-09-21T14:05:43.824Z,14.09
2022-09-21T14:08:15.181Z,14.13
2022-09-21T14:11:08.489Z,14.17
2022-09-21T14:13:46.732Z,14.20
2022-09-21T14:16:52.100Z,14.22
2022-09-21T14:19:22.436Z,14.24
2022-09-21T14:22:08.593Z,14.24
2022-09-21T14:24:42.726Z,14.24
2022-09-21T14:27:33.099Z,14.22
2022-09-21T14:30:22.655Z,14.21
2022-09-21T14:33:09.482Z,14.20
2022-09-21T14:35:43.596Z,14.18
2022-09-21T14:38:29.154Z,14.18
2022-09-21T14:41:04.991Z,14.19
2022-09-21T14:43:37.498Z,14.18
2022-09-21T14:46:29.217Z,14.14
2022-09-21T14:49:40.737Z,14.08
2022-09-21T14:52:45.529Z,14.02
2022-09-21T14:55:34.309Z,13.98
2022-09-21T14:58:39.634Z,13.96
2022-09-21T15:01:38.582Z,13.92
2022-09-21T15:04:45.743Z,13.90
2022-09-21T15:08:02.263Z,13.87
2022-09-21T15:10:57.445Z,13.81
2022-09-21T15:13:47.002Z,13.78
2022-09-21T15:16:40.901Z,13.77
2022-09-21T15:19:18.629Z,13.73
2022-09-21T15:21:52.091Z,13.70
2022-09-21T15:24:28.233Z,13.67
2022-09-21T15:27:11.274Z,13.64
2022-09-21T15:29:49.132Z,13.60
2022-09-21T15:32:27.841Z,13.55
2022-09-21T15:35:04.123Z,13.50
2022-09-21T15:37:39.501Z,13.47
2022-09-21T15:40:37.044Z,13.46
2022-09-21T15:43:11.426Z,13.43
2022-09-21T15:46:04.030Z,13.31
2022-09-21T15:48:44.310Z,13.13
2022-09-21T15:51:23.453Z,12.96
2022-09-21T15:54:13.809Z,12.82
2022-09-21T15:56:46.895Z,12.68
2022-09-21T15:59:20.863Z,12.56
2022-09-21T16:01:54.771Z,12.48
2022-09-21T16:04:29.031Z,12.42
2022-09-21T16:07:03.318Z,12.38
2022-09-21T16:09:45.123Z,12.33
2022-09-21T16:12:42.006Z,12.29
2022-09-21T16:15:33.036Z,12.20
2022-09-21T16:18:06.308Z,12.14
2022-09-21T16:20:48.489Z,12.10
2022-09-21T16:23:26.525Z,12.04
2022-09-21T16:26:02.220Z,12.01
2022-09-21T16:28:41.290Z,11.97
2022-09-21T16:31:32.245Z,11.94
2022-09-21T16:34:09.975Z,11.90
2022-09-21T16:36:41.938Z,11.86
2022-09-21T16:39:15.396Z,11.81
2022-09-21T16:41:51.998Z,11.79
2022-09-21T16:44:28.475Z,11.76
2022-09-21T16:47:03.673Z,11.74
2022-09-21T16:49:35.744Z,11.72
2022-09-21T16:52:04.631Z,11.69
2022-09-21T16:54:33.895Z,11.68
2022-09-21T16:57:05.844Z,11.67
2022-09-21T16:59:36.645Z,11.65
2022-09-21T17:02:07.460Z,11.63
2022-09-21T17:04:40.279Z,11.63
2022-09-21T17:07:13.200Z,11.62
2022-09-21T17:09:46.542Z,11.62
2022-09-21T17:12:18.175Z,11.63
2022-09-21T17:14:50.178Z,11.63
2022-09-21T17:17:25.344Z,11.63
2022-09-21T17:19:56.762Z,11.62
2022-09-21T17:22:26.778Z,11.61
2022-09-21T17:24:57.282Z,11.60
2022-09-21T17:27:31.624Z,11.59
2022-09-21T17:30:05.736Z,11.57
2022-09-21T17:32:38.546Z,11.56
2022-09-21T17:35:32.569Z,11.56
2022-09-21T17:38:03.129Z,11.55
2022-09-21T17:40:35.034Z,11.55
2022-09-21T17:43:25.586Z,11.55
2022-09-21T17:46:22.255Z,11.53
2022-09-21T17:48:53.340Z,11.51
2022-09-21T17:51:43.891Z,11.48
2022-09-21T17:54:13.892Z,11.47
2022-09-21T17:56:51.731Z,11.44
2022-09-21T17:59:28.317Z,11.42
2022-09-21T18:02:01.705Z,11.40
2022-09-21T18:04:35.078Z,11.38
2022-09-21T18:07:05.918Z,11.37
2022-09-21T18:09:36.306Z,11.36
2022-09-21T18:12:37.771Z,11.34
2022-09-21T18:15:26.923Z,11.32
2022-09-21T18:18:06.164Z,11.31
2022-09-21T18:21:02.426Z,11.29
2022-09-21T18:23:56.078Z,11.28
2022-09-21T18:26:26.819Z,11.25
2022-09-21T18:28:59.616Z,11.22
2022-09-21T18:31:55.396Z,11.21
2022-09-21T18:34:35.155Z,11.19
2022-09-21T18:37:30.261Z,11.15
2022-09-21T18:40:26.533Z,11.13
2022-09-21T18:43:00.639Z,11.11
2022-09-21T18:45:40.071Z,11.09
2022-09-21T18:48:53.025Z,11.06
2022-09-21T18:51:39.776Z,11.04
2022-09-21T18:54:24.212Z,11.02
2022-09-21T18:56:56.686Z,10.99
2022-09-21T18:59:31.838Z,10.98
2022-09-21T19:02:03.465Z,10.96
2022-09-21T19:04:36.872Z,10.94
2022-09-21T19:07:24.560Z,10.92
2022-09-21T19:10:35.389Z,10.91
2022-09-21T19:13:32.530Z,10.89
2022-09-21T19:16:10.409Z,10.87
2022-09-21T19:18:57.199Z,10.86
2022-09-21T19:21:57.340Z,10.85
2022-09-21T19:24:42.768Z,10.82
2022-09-21T19:27:23.253Z,10.79
2022-09-21T19:30:08.900Z,10.78
2022-09-21T19:32:45.197Z,10.76
2022-09-21T19:35:26.379Z,10.75
2022-09-21T19:37:58.761Z,10.74
2022-09-21T19:40:35.191Z,10.73
2022-09-21T19:43:29.200Z,10.73
2022-09-21T19:46:14.986Z,10.71
2022-09-21T19:48:50.450Z,10.69
2022-09-21T19:51:45.704Z,10.67
2022-09-21T19:54:36.879Z,10.67
2022-09-21T19:57:37.122Z,10.67
2022-09-21T20:00:13.198Z,10.65
2022-09-21T20:03:09.091Z,10.65
2022-09-21T20:06:11.988Z,10.64
2022-09-21T20:09:03.447Z,10.64
2022-09-21T20:11:59.393Z,10.65
2022-09-21T20:14:51.558Z,10.67
2022-09-21T20:17:38.382Z,10.69
2022-09-21T20:20:14.232Z,10.70
2022-09-21T20:22:42.414Z,10.71
2022-09-21T20:25:21.218Z,10.72
2022-09-21T20:27:55.519Z,10.73
2022-09-21T20:30:34.168Z,10.73
2022-09-21T20:33:15.558Z,10.72
2022-09-21T20:35:45.461Z,10.72
2022-09-21T20:38:15.650Z,10.70
2022-09-21T20:40:46.279Z,10.68
2022-09-21T20:43:18.848Z,10.65
2022-09-21T20:45:51.309Z,10.63
2022-09-21T20:48:23.661Z,10.60
2022-09-21T20:50:54.913Z,10.56
2022-09-21T20:53:25.545Z,10.53
2022-09-21T20:56:02.001Z,10.50
2022-09-21T20:58:30.979Z,10.46
2022-09-21T21:01:11.717Z,10.42
2022-09-21T21:03:39.754Z,10.37
2022-09-21T21:06:19.246Z,10.33
2022-09-21T21:08:50.902Z,10.31
2022-09-21T21:11:23.856Z,10.29
2022-09-21T21:13:51.643Z,10.29
2022-09-21T21:16:19.472Z,10.29
2022-09-21T21:18:54.205Z,10.26
2022-09-21T21:21:25.706Z,10.23
2022-09-21T21:24:15.965Z,10.22
2022-09-21T21:27:03.273Z,10.19
2022-09-21T21:29:34.502Z,10.18
2022-09-21T21:32:05.837Z,10.16
2022-09-21T21:34:36.051Z,10.15
2022-09-21T21:37:06.082Z,10.12
2022-09-21T21:39:36.169Z,10.11
2022-09-21T21:42:07.301Z,10.10
2022-09-21T21:44:35.318Z,10.09
2022-09-21T21:47:27.796Z,10.09
2022-09-21T21:49:55.626Z,10.08
2022-09-21T21:52:25.658Z,10.07
2022-09-21T21:54:53.594Z,10.07
2022-09-21T21:57:21.754Z,10.06
2022-09-21T21:59:49.505Z,10.06
2022-09-21T22:02:22.085Z,10.06
2022-09-21T22:04:50.708Z,10.06
2022-09-21T22:07:21.167Z,10.05
2022-09-21T22:09:48.883Z,10.05
2022-09-21T22:12:24.982Z,10.04
2022-09-21T22:14:52.876Z,10.04
2022-09-21T22:17:27.253Z,10.03
2022-09-21T22:19:59.806Z,10.03
2022-09-21T22:22:27.690Z,10.03
2022-09-21T22:24:55.364Z,10.02
2022-09-21T22:27:27.154Z,10.01
2022-09-21T22:29:55.149Z,10.01
2022-09-21T22:32:25.603Z,10.02
2022-09-21T22:34:55.769Z,10.02
2022-09-21T22:37:30.695Z,10.00
2022-09-21T22:40:03.463Z,10.00
2022-09-21T22:42:33.529Z,10.01
2022-09-21T22:45:01.211Z,10.01
2022-09-21T22:47:34.097Z,10.01
2022-09-21T22:50:02.578Z,10.02
2022-09-21T22:52:32.789Z,10.02
2022-09-21T22:55:00.770Z,10.02
2022-09-21T22:57:31.023Z,10.02
2022-09-21T23:00:08.346Z,10.03
2022-09-21T23:02:36.288Z,10.03
2022-09-21T23:05:10.514Z,10.04
2022-09-21T23:07:38.505Z,10.04
2022-09-21T23:10:10.036Z,10.03
2022-09-21T23:12:38.485Z,10.04
2022-09-21T23:15:09.268Z,10.03
2022-09-21T23:17:41.207Z,10.04
2022-09-21T23:20:13.289Z,10.04
2022-09-21T23:22:41.524Z,10.03
2022-09-21T23:25:09.505Z,10.04
2022-09-21T23:27:37.496Z,10.04
2022-09-21T23:30:11.682Z,10.05
2022-09-21T23:32:39.611Z,10.06
2022-09-21T23:35:09.811Z,10.06
2022-09-21T23:37:37.789Z,10.07
2022-09-21T23:40:09.802Z,10.07
2022-09-21T23:42:37.786Z,10.08
2022-09-21T23:45:09.854Z,10.08
2022-09-21T23:47:37.814Z,10.07
2022-09-21T23:50:09.884Z,10.05
2022-09-21T23:52:37.790Z,10.05
2022-09-21T23:55:10.804Z,10.05
2022-09-21T23:57:38.516Z,10.05
